Time;durP1;ratioP1;P1;durP2;ratioP2;P2;SDS_P1;SDS_P2;PMS_P1;PMS_P2;Temp;Humidity;BMP_temperature;BMP_pressure;BME280_temperature;BME280_humidity;BME280_pressure;Samples;Min_cycle;Max_cycle;Signal;HPM_P1;HPM_P2
2023/12/16 00:00:04;;;;;;;29.30;13.73;;;;;;;7.11;100.00;102266.72;6094007;23;20077;-86
2023/12/16 00:02:37;;;;;;;34.97;14.70;;;;;;;7.06;100.00;102266.03;6058295;23;20462;-85
2023/12/16 00:05:04;;;;;;;28.27;15.15;;;;;;;7.07;100.00;102265.13;6109718;23;20022;-85
2023/12/16 00:07:31;;;;;;;34.10;16.88;;;;;;;7.04;100.00;102254.63;6061331;23;20089;-86
2023/12/16 00:09:58;;;;;;;34.05;15.85;;;;;;;7.03;100.00;102270.56;6086867;23;20022;-86
2023/12/16 00:12:25;;;;;;;33.03;14.95;;;;;;;7.06;100.00;102278.38;6050044;23;20022;-86
2023/12/16 00:14:53;;;;;;;32.78;15.60;;;;;;;7.09;100.00;102287.03;6111347;23;20019;-85
2023/12/16 00:17:22;;;;;;;39.72;16.45;;;;;;;7.12;100.00;102286.06;6048826;23;20069;-85
2023/12/16 00:19:49;;;;;;;37.83;16.42;;;;;;;7.11;100.00;102279.09;6085412;23;20057;-86
2023/12/16 00:22:18;;;;;;;36.80;16.08;;;;;;;7.11;100.00;102276.44;6085197;23;20093;-86
2023/12/16 00:24:45;;;;;;;36.53;16.60;;;;;;;7.11;100.00;102274.66;6134316;23;20034;-86
2023/12/16 00:27:12;;;;;;;34.15;16.88;;;;;;;7.10;100.00;102278.22;6098942;23;20073;-85
2023/12/16 00:29:38;;;;;;;31.50;14.20;;;;;;;7.14;100.00;102289.53;6083952;23;20033;-86
2023/12/16 00:32:06;;;;;;;34.03;15.15;;;;;;;7.11;100.00;102287.00;6134188;23;20026;-86
2023/12/16 00:34:33;;;;;;;35.03;15.27;;;;;;;7.13;100.00;102295.75;6052083;23;20019;-85
2023/12/16 00:37:05;;;;;;;34.80;15.02;;;;;;;7.14;100.00;102290.41;6134820;23;20097;-86
2023/12/16 00:39:32;;;;;;;35.47;16.05;;;;;;;7.13;100.00;102298.41;6107342;23;20019;-86
2023/12/16 00:41:59;;;;;;;35.42;16.60;;;;;;;7.15;100.00;102307.13;6110280;23;20097;-86
2023/12/16 00:44:26;;;;;;;35.17;15.57;;;;;;;7.15;100.00;102307.13;6085953;23;20033;-86
2023/12/16 00:46:53;;;;;;;28.38;14.38;;;;;;;7.15;100.00;102309.78;6084570;23;20458;-85
2023/12/16 00:49:21;;;;;;;35.67;15.63;;;;;;;7.14;100.00;102311.53;6084486;23;20022;-85
2023/12/16 00:51:48;;;;;;;32.63;16.42;;;;;;;7.17;100.00;102316.75;6108688;23;22553;-85
2023/12/16 00:54:16;;;;;;;34.20;15.50;;;;;;;7.21;100.00;102313.97;6061567;23;20026;-85
2023/12/16 00:56:43;;;;;;;36.13;16.58;;;;;;;7.18;100.00;102309.66;6060839;23;20053;-86
2023/12/16 00:59:10;;;;;;;34.60;14.98;;;;;;;7.19;100.00;102306.09;6103356;23;20026;-86
2023/12/16 01:01:37;;;;;;;33.75;15.80;;;;;;;7.18;100.00;102292.03;6061947;23;20022;-86
2023/12/16 01:04:04;;;;;;;35.63;15.75;;;;;;;7.21;100.00;102293.69;6061773;23;20022;-86
2023/12/16 01:06:31;;;;;;;34.75;15.25;;;;;;;7.21;100.00;102301.63;6082679;23;20808;-86
2023/12/16 01:08:58;;;;;;;33.22;15.00;;;;;;;7.18;100.00;102299.09;6085614;23;20015;-86
2023/12/16 01:11:25;;;;;;;31.80;14.77;;;;;;;7.17;100.00;102306.16;6072902;23;20653;-86
2023/12/16 01:13:53;;;;;;;36.22;15.60;;;;;;;7.16;100.00;102299.13;6108564;23;20024;-87
2023/12/16 01:16:20;;;;;;;33.58;16.83;;;;;;;7.16;100.00;102303.56;6061944;23;20026;-86
2023/12/16 01:18:47;;;;;;;34.85;15.23;;;;;;;7.16;100.00;102306.22;6083151;23;20027;-86
2023/12/16 01:21:17;;;;;;;36.17;15.90;;;;;;;7.16;100.00;102307.06;6060104;23;20026;-86
2023/12/16 01:23:46;;;;;;;35.63;16.70;;;;;;;7.16;100.00;102301.78;6043932;23;20018;-86
2023/12/16 01:26:13;;;;;;;32.88;15.40;;;;;;;7.17;100.00;102308.81;6061396;23;20027;-85
2023/12/16 01:28:40;;;;;;;35.75;17.17;;;;;;;7.20;100.00;102320.16;6059890;23;20078;-86
2023/12/16 01:31:08;;;;;;;37.33;16.75;;;;;;;7.16;100.00;102308.84;6037053;23;20050;-86
2023/12/16 01:33:35;;;;;;;38.00;18.05;;;;;;;7.15;100.00;102310.63;6067219;23;20022;-85
2023/12/16 01:36:02;;;;;;;39.97;18.13;;;;;;;7.16;100.00;102312.34;6069250;23;20026;-85
2023/12/16 01:38:32;;;;;;;33.33;16.33;;;;;;;7.14;100.00;102314.19;6084795;23;20041;-85
2023/12/16 01:40:59;;;;;;;37.67;17.77;;;;;;;7.16;100.00;102325.56;6084201;23;20346;-85
2023/12/16 01:43:26;;;;;;;32.30;15.35;;;;;;;7.16;100.00;102322.91;6085632;23;20034;-86
2023/12/16 01:46:00;;;;;;;36.97;15.88;;;;;;;7.16;100.00;102328.19;6109552;23;20054;-85
2023/12/16 01:48:33;;;;;;;39.65;15.15;;;;;;;7.15;100.00;102328.28;6107352;23;20038;-86
2023/12/16 01:51:01;;;;;;;38.08;17.10;;;;;;;7.18;100.00;102334.31;6058441;23;20026;-85
2023/12/16 01:53:29;;;;;;;35.17;16.10;;;;;;;7.20;100.00;102328.09;6060280;23;20074;-85
2023/12/16 01:55:57;;;;;;;34.33;15.85;;;;;;;7.21;100.00;102322.75;6045546;23;20022;-86
2023/12/16 01:58:24;;;;;;;40.42;16.63;;;;;;;7.19;100.00;102316.66;6059623;23;20106;-85
2023/12/16 02:00:52;;;;;;;36.85;16.83;;;;;;;7.23;100.00;102320.09;6082648;23;20023;-85
2023/12/16 02:03:20;;;;;;;37.65;16.08;;;;;;;7.22;100.00;102316.56;6130893;23;20030;-85
2023/12/16 02:05:49;;;;;;;37.00;16.38;;;;;;;7.21;100.00;102322.75;6084278;23;20537;-85
2023/12/16 02:08:16;;;;;;;36.50;15.68;;;;;;;7.24;100.00;102329.72;6108942;23;20022;-90
2023/12/16 02:10:43;;;;;;;40.08;15.35;;;;;;;7.24;100.00;102335.00;6060020;23;20030;-89
2023/12/16 02:13:10;;;;;;;35.88;15.75;;;;;;;7.23;100.00;102328.88;6108233;23;20038;-89
2023/12/16 02:15:37;;;;;;;35.55;16.70;;;;;;;7.22;100.00;102329.75;6108430;23;20442;-89
2023/12/16 02:18:04;;;;;;;36.95;16.02;;;;;;;7.23;100.00;102330.66;6109458;23;20018;-90
2023/12/16 02:20:31;;;;;;;43.45;17.23;;;;;;;7.25;100.00;102334.09;6085760;23;20026;-89
2023/12/16 02:23:00;;;;;;;36.90;16.27;;;;;;;7.23;100.00;102323.59;6060996;23;20018;-89
2023/12/16 02:25:27;;;;;;;39.08;15.27;;;;;;;7.22;100.00;102319.19;6060880;23;20030;-89
2023/12/16 02:27:54;;;;;;;37.17;16.33;;;;;;;7.26;100.00;102330.53;6035614;23;20089;-89
2023/12/16 02:30:23;;;;;;;37.85;15.85;;;;;;;7.23;100.00;102330.66;6058052;23;20033;-90
2023/12/16 02:32:52;;;;;;;35.35;15.60;;;;;;;7.24;100.00;102332.38;6105450;23;20026;-89
2023/12/16 02:35:19;;;;;;;33.38;15.68;;;;;;;7.25;100.00;102334.97;6050034;23;20030;-89
2023/12/16 02:37:49;;;;;;;39.13;15.52;;;;;;;7.24;100.00;102329.72;6060155;23;20042;-89
2023/12/16 02:40:16;;;;;;;37.78;16.33;;;;;;;7.20;100.00;102339.56;6132214;23;20327;-89
2023/12/16 02:42:43;;;;;;;38.10;17.67;;;;;;;7.23;100.00;102342.09;6099029;23;20077;-89
2023/12/16 02:45:15;;;;;;;38.08;17.42;;;;;;;7.22;100.00;102342.13;6051629;23;20038;-89
2023/12/16 02:47:46;;;;;;;37.42;16.40;;;;;;;7.24;100.00;102350.88;6016321;23;20018;-89
2023/12/16 02:50:13;;;;;;;36.22;15.82;;;;;;;7.23;100.00;102349.16;6083101;23;20026;-89
2023/12/16 02:52:40;;;;;;;37.72;16.05;;;;;;;7.23;100.00;102346.50;6036675;23;20022;-89
2023/12/16 02:55:07;;;;;;;36.20;16.00;;;;;;;7.24;100.00;102346.44;6084926;23;20464;-89
2023/12/16 02:57:33;;;;;;;36.80;15.77;;;;;;;7.24;100.00;102357.00;6108347;23;20046;-89
2023/12/16 03:00:01;;;;;;;36.80;16.70;;;;;;;7.25;100.00;102363.16;6109003;23;20026;-91
2023/12/16 03:02:28;;;;;;;34.90;14.80;;;;;;;7.26;100.00;102367.53;6059965;23;20455;-90
2023/12/16 03:04:54;;;;;;;35.03;14.95;;;;;;;7.23;100.00;102357.09;6061027;23;20105;-91
2023/12/16 03:07:21;;;;;;;39.70;16.45;;;;;;;7.22;100.00;102355.34;6036653;23;20125;-90
2023/12/16 03:09:48;;;;;;;36.20;16.42;;;;;;;7.23;100.00;102355.28;6084967;23;20072;-90
2023/12/16 03:12:15;;;;;;;35.00;14.98;;;;;;;7.24;100.00;102351.72;6035681;23;20758;-90
2023/12/16 03:14:42;;;;;;;36.20;15.02;;;;;;;7.26;100.00;102359.63;6059930;23;20022;-90
2023/12/16 03:17:09;;;;;;;34.90;14.82;;;;;;;7.26;100.00;102360.47;6084396;23;20034;-90
2023/12/16 03:19:36;;;;;;;33.63;15.68;;;;;;;7.26;100.00;102349.91;6083917;23;20081;-89
2023/12/16 03:22:03;;;;;;;41.97;16.70;;;;;;;7.25;100.00;102345.53;6085216;23;20522;-90
2023/12/16 03:24:30;;;;;;;32.70;15.30;;;;;;;7.25;100.00;102348.19;6093022;23;20089;-90
2023/12/16 03:26:57;;;;;;;35.13;15.98;;;;;;;7.23;100.00;102341.22;6031710;23;20062;-90
2023/12/16 03:29:24;;;;;;;35.60;15.07;;;;;;;7.25;100.00;102347.28;6081180;23;20026;-90
2023/12/16 03:31:51;;;;;;;39.65;16.00;;;;;;;7.23;100.00;102338.59;6108842;23;20025;-90
2023/12/16 03:34:18;;;;;;;36.22;15.25;;;;;;;7.22;100.00;102334.19;6058353;23;20023;-91
2023/12/16 03:36:45;;;;;;;35.22;15.80;;;;;;;7.21;100.00;102333.34;6048374;23;20019;-90
2023/12/16 03:39:12;;;;;;;38.75;16.48;;;;;;;7.23;100.00;102334.16;6081331;23;20105;-90
2023/12/16 03:41:39;;;;;;;38.50;16.05;;;;;;;7.21;100.00;102343.91;6106440;23;20121;-91
2023/12/16 03:44:06;;;;;;;35.42;15.40;;;;;;;7.22;100.00;102339.47;6071219;23;20351;-90
2023/12/16 03:46:36;;;;;;;39.75;16.70;;;;;;;7.23;100.00;102347.38;6081069;23;20030;-90
2023/12/16 03:49:05;;;;;;;41.03;15.83;;;;;;;7.22;100.00;102337.69;6062636;23;20033;-86
2023/12/16 03:51:32;;;;;;;40.45;16.52;;;;;;;7.21;100.00;102333.34;6094848;23;20042;-86
2023/12/16 03:53:59;;;;;;;37.90;15.40;;;;;;;7.24;100.00;102337.66;6108584;23;20482;-85
2023/12/16 03:56:26;;;;;;;36.08;16.42;;;;;;;7.24;100.00;102337.66;6059791;23;20026;-85
2023/12/16 03:58:52;;;;;;;36.10;15.75;;;;;;;7.22;100.00;102336.84;6107052;23;20038;-87
2023/12/16 04:01:19;;;;;;;31.85;14.82;;;;;;;7.21;100.00;102343.91;6037407;23;20014;-85
2023/12/16 04:03:46;;;;;;;36.60;15.32;;;;;;;7.21;100.00;102343.91;6107265;23;20041;-85
2023/12/16 04:06:14;;;;;;;33.53;14.35;;;;;;;7.22;100.00;102352.69;6108675;23;20470;-86
2023/12/16 04:08:41;;;;;;;44.33;14.30;;;;;;;7.18;100.00;102344.88;6058554;23;20033;-85
2023/12/16 04:11:08;;;;;;;32.15;13.70;;;;;;;7.23;100.00;102347.38;6061048;23;20019;-85
2023/12/16 04:13:35;;;;;;;34.83;15.43;;;;;;;7.21;100.00;102348.34;6035820;23;20034;-85
2023/12/16 04:16:03;;;;;;;35.45;15.63;;;;;;;7.19;100.00;102345.72;6106897;23;20033;-85
2023/12/16 04:18:31;;;;;;;33.28;14.68;;;;;;;7.18;100.00;102344.88;6059750;23;20023;-85
2023/12/16 04:20:59;;;;;;;36.20;15.55;;;;;;;7.18;100.00;102347.53;6082782;23;20023;-85
2023/12/16 04:23:26;;;;;;;39.75;16.10;;;;;;;7.22;100.00;102352.69;6070365;23;20022;-85
2023/12/16 04:25:53;;;;;;;37.92;15.18;;;;;;;7.24;100.00;102358.78;6083413;23;20026;-85
2023/12/16 04:28:22;;;;;;;39.20;15.95;;;;;;;7.21;100.00;102343.91;6109001;23;20019;-85
2023/12/16 04:30:49;;;;;;;40.20;14.32;;;;;;;7.18;100.00;102341.38;6084986;23;20026;-86
2023/12/16 04:33:16;;;;;;;36.85;15.13;;;;;;;7.20;100.00;102347.47;6084641;23;20029;-86
2023/12/16 04:35:43;;;;;;;38.05;15.48;;;;;;;7.19;100.00;102343.09;6050158;23;20046;-85
2023/12/16 04:38:10;;;;;;;37.03;15.18;;;;;;;7.19;100.00;102343.09;6079241;23;20027;-86
2023/12/16 04:40:37;;;;;;;34.35;14.70;;;;;;;7.20;100.00;102354.50;6080526;23;20069;-85
2023/12/16 04:43:04;;;;;;;34.83;14.93;;;;;;;7.20;100.00;102354.50;6061789;23;20026;-86
2023/12/16 04:45:30;;;;;;;36.72;15.25;;;;;;;7.18;100.00;102349.31;6085405;23;20034;-85
2023/12/16 04:47:58;;;;;;;33.72;13.63;;;;;;;7.20;100.00;102344.84;6067736;23;20028;-85
2023/12/16 04:50:26;;;;;;;29.17;13.68;;;;;;;7.18;100.00;102350.16;6008211;23;20026;-86
2023/12/16 04:52:53;;;;;;;39.35;16.10;;;;;;;7.16;100.00;102349.34;6109112;23;20030;-85
2023/12/16 04:55:20;;;;;;;36.13;14.25;;;;;;;7.18;100.00;102363.38;6082178;23;20451;-85
2023/12/16 04:57:47;;;;;;;39.58;15.88;;;;;;;7.19;100.00;102361.59;6130034;23;20105;-85
2023/12/16 05:00:17;;;;;;;33.60;14.07;;;;;;;7.20;100.00;102365.97;6082684;23;20034;-85
2023/12/16 05:02:44;;;;;;;37.20;14.77;;;;;;;7.17;100.00;102363.41;6059892;23;20046;-86
2023/12/16 05:05:12;;;;;;;38.42;16.38;;;;;;;7.14;100.00;102364.38;6109413;23;20022;-85
2023/12/16 05:07:39;;;;;;;36.67;14.38;;;;;;;7.16;100.00;102365.19;6094276;23;20022;-85
2023/12/16 05:10:10;;;;;;;41.53;15.02;;;;;;;7.18;100.00;102373.09;6109229;23;20018;-86
2023/12/16 05:12:39;;;;;;;43.53;16.27;;;;;;;7.17;100.00;102368.69;6034370;23;20049;-86
2023/12/16 05:15:07;;;;;;;43.45;16.48;;;;;;;7.16;100.00;102370.47;6061202;23;20106;-86
2023/12/16 05:17:34;;;;;;;41.22;15.63;;;;;;;7.17;100.00;102369.59;6084356;23;20014;-85
2023/12/16 05:20:02;;;;;;;44.05;16.38;;;;;;;7.18;100.00;102373.94;6038181;23;20083;-86
2023/12/16 05:22:33;;;;;;;43.75;15.95;;;;;;;7.16;100.00;102364.34;6036468;23;20026;-85
2023/12/16 05:25:02;;;;;;;45.00;17.50;;;;;;;7.17;100.00;102368.69;6061414;23;20447;-86
2023/12/16 05:27:30;;;;;;;40.72;15.82;;;;;;;7.14;100.00;102356.44;6084268;23;20030;-85
2023/12/16 05:29:57;;;;;;;39.17;16.58;;;;;;;7.15;100.00;102354.69;6083688;23;20019;-85
2023/12/16 05:32:26;;;;;;;43.72;14.68;;;;;;;7.18;100.00;102358.09;6084603;23;20023;-85
2023/12/16 05:34:56;;;;;;;37.10;15.52;;;;;;;7.17;100.00;102369.59;6094171;23;20025;-86
2023/12/16 05:37:24;;;;;;;40.15;15.05;;;;;;;7.15;100.00;102371.41;6084531;23;20027;-86
2023/12/16 05:39:51;;;;;;;38.95;15.43;;;;;;;7.16;100.00;102365.19;6084308;23;20018;-86
2023/12/16 05:42:23;;;;;;;36.45;15.60;;;;;;;7.17;100.00;102366.94;6083516;23;20359;-86
2023/12/16 05:44:50;;;;;;;38.33;16.08;;;;;;;7.18;100.00;102365.16;6084943;23;20022;-86
2023/12/16 05:47:19;;;;;;;41.92;16.17;;;;;;;7.18;100.00;102371.31;6108532;23;20026;-86
2023/12/16 05:49:46;;;;;;;44.78;17.63;;;;;;;7.19;100.00;102364.22;6084886;23;20450;-86
2023/12/16 05:52:12;;;;;;;42.53;16.77;;;;;;;7.20;100.00;102375.66;6058677;23;20458;-86
2023/12/16 05:54:39;;;;;;;38.70;15.30;;;;;;;7.18;100.00;102375.72;6059737;23;20113;-86
2023/12/16 05:57:06;;;;;;;40.92;17.25;;;;;;;7.19;100.00;102377.44;6060602;23;20122;-86
2023/12/16 05:59:34;;;;;;;45.65;16.85;;;;;;;7.17;100.00;102382.78;6076794;23;20323;-85
2023/12/16 06:02:01;;;;;;;43.50;15.57;;;;;;;7.18;100.00;102381.00;6057361;23;20022;-86
2023/12/16 06:04:28;;;;;;;43.05;17.58;;;;;;;7.21;100.00;102393.25;6107559;23;20026;-85
2023/12/16 06:06:55;;;;;;;42.72;17.38;;;;;;;7.15;100.00;102403.13;6109418;23;20014;-86
2023/12/16 06:09:22;;;;;;;43.13;17.60;;;;;;;7.16;100.00;102391.63;6080846;23;20035;-86
2023/12/16 06:11:49;;;;;;;45.38;17.25;;;;;;;7.20;100.00;102404.72;6108379;23;20081;-85
2023/12/16 06:14:16;;;;;;;41.88;16.70;;;;;;;7.18;100.00;102408.28;6060315;23;20101;-86
2023/12/16 06:16:43;;;;;;;47.42;17.48;;;;;;;7.17;100.00;102408.34;6052430;23;20027;-86
2023/12/16 06:19:10;;;;;;;43.22;17.15;;;;;;;7.15;100.00;102412.81;6082374;23;20045;-86
2023/12/16 06:21:37;;;;;;;41.95;16.55;;;;;;;7.14;100.00;102411.09;6108425;23;20355;-86
2023/12/16 06:24:05;;;;;;;43.45;15.20;;;;;;;7.14;100.00;102414.59;6108538;23;20026;-86
2023/12/16 06:26:32;;;;;;;43.20;17.80;;;;;;;7.14;100.00;102411.94;6108997;23;20032;-86
2023/12/16 06:28:59;;;;;;;45.10;18.00;;;;;;;7.13;100.00;102410.22;6060844;23;20026;-86
2023/12/16 06:31:26;;;;;;;48.67;17.65;;;;;;;7.13;100.00;102412.88;6082877;23;20042;-86
2023/12/16 06:33:53;;;;;;;40.35;16.40;;;;;;;7.10;100.00;102407.69;6060078;23;20026;-85
2023/12/16 06:36:20;;;;;;;44.30;16.77;;;;;;;7.13;100.00;102412.88;6061326;23;20018;-87
2023/12/16 06:38:47;;;;;;;37.50;16.48;;;;;;;7.10;100.00;102402.41;6083430;23;20034;-86
2023/12/16 06:41:13;;;;;;;43.63;16.98;;;;;;;7.08;100.00;102401.59;6108484;23;20093;-87
2023/12/16 06:43:40;;;;;;;38.72;15.70;;;;;;;7.06;100.00;102398.13;6085902;23;20045;-86
2023/12/16 06:46:07;;;;;;;38.35;16.50;;;;;;;7.06;100.00;102407.84;6107135;23;20098;-86
2023/12/16 06:48:36;;;;;;;36.65;16.10;;;;;;;7.05;100.00;102412.25;6083860;23;20026;-86
2023/12/16 06:51:05;;;;;;;39.55;17.50;;;;;;;7.07;100.00;102417.47;6058596;23;20057;-87
2023/12/16 06:53:35;;;;;;;43.35;17.00;;;;;;;7.05;100.00;102399.06;6083848;23;20358;-86
2023/12/16 06:56:03;;;;;;;41.53;17.70;;;;;;;7.06;100.00;102410.47;6121219;23;20458;-85
2023/12/16 06:58:32;;;;;;;46.13;18.65;;;;;;;7.05;100.00;102403.47;6035611;23;20026;-86
2023/12/16 07:00:59;;;;;;;43.13;17.55;;;;;;;7.05;100.00;102414.03;6081827;23;20497;-86
2023/12/16 07:03:28;;;;;;;43.17;16.60;;;;;;;7.04;100.00;102407.88;6082961;23;20042;-86
2023/12/16 07:05:55;;;;;;;44.72;18.05;;;;;;;7.06;100.00;102413.97;6036279;23;20097;-85
2023/12/16 07:08:24;;;;;;;41.63;15.38;;;;;;;7.05;100.00;102420.19;6084084;23;20022;-86
2023/12/16 07:10:52;;;;;;;42.00;16.77;;;;;;;7.04;100.00;102413.16;6082234;23;20022;-85
2023/12/16 07:13:19;;;;;;;43.85;17.33;;;;;;;7.01;100.00;102412.41;6106494;23;20025;-86
2023/12/16 07:15:46;;;;;;;48.53;18.17;;;;;;;7.05;100.00;102421.97;6061367;23;20455;-85
2023/12/16 07:18:13;;;;;;;40.92;16.60;;;;;;;7.07;100.00;102420.13;6083736;23;20029;-86
2023/12/16 07:20:40;;;;;;;39.53;16.33;;;;;;;7.05;100.00;102428.13;6059015;23;20026;-87
2023/12/16 07:23:07;;;;;;;38.17;16.77;;;;;;;7.05;100.00;102432.53;6060485;23;20030;-85
2023/12/16 07:25:34;;;;;;;42.97;17.80;;;;;;;7.05;100.00;102435.19;6083484;23;20089;-82
2023/12/16 07:28:01;;;;;;;43.25;16.88;;;;;;;7.04;100.00;102430.78;6108160;23;20034;-84
2023/12/16 07:30:28;;;;;;;45.28;18.20;;;;;;;7.04;100.00;102439.56;6083667;23;20046;-83
2023/12/16 07:32:55;;;;;;;41.00;16.92;;;;;;;7.02;100.00;102446.72;6059475;23;20022;-83
2023/12/16 07:35:22;;;;;;;36.42;15.43;;;;;;;7.06;100.00;102453.59;6059350;23;21423;-82
2023/12/16 07:37:48;;;;;;;37.38;16.73;;;;;;;7.06;100.00;102458.88;6059392;23;20030;-82
2023/12/16 07:40:15;;;;;;;40.25;15.73;;;;;;;7.07;100.00;102457.09;6083449;23;20018;-83
2023/12/16 07:42:42;;;;;;;37.70;16.85;;;;;;;7.07;100.00;102457.09;6084039;23;20019;-82
2023/12/16 07:45:09;;;;;;;40.65;16.48;;;;;;;7.07;100.00;102460.63;6083188;23;20045;-82
2023/12/16 07:47:36;;;;;;;41.00;17.77;;;;;;;7.08;100.00;102456.22;6083890;23;20018;-82
2023/12/16 07:50:03;;;;;;;48.08;19.08;;;;;;;7.08;100.00;102449.16;6108151;23;20026;-83
2023/12/16 07:52:30;;;;;;;41.63;18.08;;;;;;;7.07;100.00;102458.00;6082323;23;20022;-83
2023/12/16 07:54:57;;;;;;;44.88;18.10;;;;;;;7.08;100.00;102465.00;6083651;23;20458;-83
2023/12/16 07:57:25;;;;;;;48.28;19.73;;;;;;;7.08;100.00;102458.84;6107989;23;20106;-82
2023/12/16 07:59:52;;;;;;;44.35;19.40;;;;;;;7.09;100.00;102469.34;6058971;23;20129;-82
2023/12/16 08:02:23;;;;;;;41.22;18.52;;;;;;;7.09;100.00;102469.34;6082662;23;20029;-88
2023/12/16 08:04:52;;;;;;;41.47;17.40;;;;;;;7.09;100.00;102463.22;6099550;23;20022;-88
2023/12/16 08:07:19;;;;;;;44.38;18.45;;;;;;;7.09;100.00;102472.00;6085043;23;20034;-86
2023/12/16 08:09:46;;;;;;;46.13;17.90;;;;;;;7.11;100.00;102471.97;6110229;23;20025;-87
2023/12/16 08:12:13;;;;;;;42.72;16.25;;;;;;;7.13;100.00;102472.78;6134179;23;20027;-87
2023/12/16 08:14:40;;;;;;;39.67;16.10;;;;;;;7.12;100.00;102474.56;6109329;23;20090;-86
2023/12/16 08:17:07;;;;;;;38.35;15.52;;;;;;;7.14;100.00;102475.34;6087079;23;20022;-87
2023/12/16 08:19:33;;;;;;;41.92;17.58;;;;;;;7.15;100.00;102479.75;6084866;23;20022;-88
2023/12/16 08:22:01;;;;;;;36.75;16.65;;;;;;;7.14;100.00;102467.44;6063109;23;20030;-87
2023/12/16 08:24:32;;;;;;;34.90;16.67;;;;;;;7.17;100.00;102463.81;6110030;23;20034;-87
2023/12/16 08:26:59;;;;;;;40.40;16.23;;;;;;;7.16;100.00;102459.47;6084979;23;20030;-87
2023/12/16 08:29:26;;;;;;;46.55;18.25;;;;;;;7.18;100.00;102463.78;6109009;23;20026;-87
2023/12/16 08:31:52;;;;;;;33.28;16.33;;;;;;;7.17;100.00;102471.75;6108274;23;20018;-87
2023/12/16 08:34:19;;;;;;;42.40;16.63;;;;;;;7.20;100.00;102478.72;6109346;23;20026;-87
2023/12/16 08:36:48;;;;;;;37.50;15.75;;;;;;;7.20;100.00;102482.25;6108763;23;20709;-87
2023/12/16 08:39:15;;;;;;;41.88;16.73;;;;;;;7.20;100.00;102482.25;6085128;23;20049;-87
2023/12/16 08:42:08;;;;;;;;;;;;;;;;;;;;;
2023/12/16 08:45:41;;;;;;;42.15;17.58;;;;;;;7.19;99.96;102483.16;5854844;23;20033;-87
2023/12/16 08:48:08;;;;;;;43.55;16.48;;;;;;;7.21;100.00;102486.59;6084687;23;20037;-87
2023/12/16 08:50:35;;;;;;;45.67;16.80;;;;;;;7.24;99.80;102496.22;6085724;23;20085;-87
2023/12/16 08:53:02;;;;;;;44.88;16.80;;;;;;;7.27;99.67;102501.41;6086410;23;20097;-87
2023/12/16 08:55:29;;;;;;;45.92;18.25;;;;;;;7.27;99.69;102509.31;6084822;23;20049;-87
2023/12/16 08:57:56;;;;;;;45.75;17.27;;;;;;;7.25;99.00;102517.31;6086564;23;20027;-87
2023/12/16 09:00:23;;;;;;;35.40;15.15;;;;;;;7.26;98.80;102513.75;6085509;23;20026;-87
2023/12/16 09:02:50;;;;;;;38.17;16.52;;;;;;;7.23;98.82;102532.34;6108999;23;20698;-87
2023/12/16 09:05:19;;;;;;;37.17;16.23;;;;;;;7.24;98.35;102527.94;6085896;23;20411;-87
2023/12/16 09:07:46;;;;;;;39.97;16.05;;;;;;;7.25;98.46;102533.19;6064189;23;20746;-87
2023/12/16 09:10:13;;;;;;;34.60;16.30;;;;;;;7.25;98.29;102535.81;6086649;23;20042;-87
2023/12/16 09:12:40;;;;;;;41.05;17.23;;;;;;;7.26;98.32;102544.59;6110743;23;20026;-87
2023/12/16 09:15:07;;;;;;;36.75;15.30;;;;;;;7.29;98.26;102548.00;6069726;23;20021;-87
2023/12/16 09:17:34;;;;;;;40.72;16.95;;;;;;;7.30;98.62;102554.16;6070605;23;20029;-86
2023/12/16 09:20:02;;;;;;;43.42;16.67;;;;;;;7.33;99.05;102559.38;6107959;23;20019;-85
2023/12/16 09:22:29;;;;;;;43.80;17.40;;;;;;;7.32;99.00;102547.91;6086621;23;20018;-87
2023/12/16 09:24:57;;;;;;;37.83;16.23;;;;;;;7.34;98.52;102543.44;6064065;23;20109;-88
2023/12/16 09:27:24;;;;;;;39.00;17.13;;;;;;;7.35;98.28;102544.31;6086635;23;20037;-86
2023/12/16 09:29:51;;;;;;;38.78;17.42;;;;;;;7.35;98.48;102537.25;6061888;23;20053;-82
2023/12/16 09:32:18;;;;;;;40.40;15.40;;;;;;;7.37;98.52;102540.69;6075059;23;20347;-83
2023/12/16 09:34:45;;;;;;;44.67;16.35;;;;;;;7.43;98.63;102538.78;6061187;23;20687;-83
2023/12/16 09:37:12;;;;;;;41.30;15.60;;;;;;;7.46;98.74;102536.91;6085814;23;20050;-83
2023/12/16 09:39:39;;;;;;;40.70;16.23;;;;;;;7.49;99.15;102542.09;6061040;23;20033;-83
2023/12/16 09:42:06;;;;;;;35.20;14.43;;;;;;;7.50;98.56;102542.94;6109941;23;20468;-82
2023/12/16 09:44:36;;;;;;;32.45;14.88;;;;;;;7.52;98.63;102538.50;6107765;23;20022;-83
2023/12/16 09:47:04;;;;;;;39.03;17.73;;;;;;;7.56;98.76;102542.78;6111238;23;20029;-82
2023/12/16 09:49:31;;;;;;;38.00;15.02;;;;;;;7.59;98.72;102542.66;6085392;23;20021;-83
2023/12/16 09:51:58;;;;;;;37.03;14.73;;;;;;;7.59;98.83;102535.59;6063404;23;20026;-82
2023/12/16 09:54:25;;;;;;;35.08;15.13;;;;;;;7.58;98.76;102541.81;6062083;23;20038;-83
2023/12/16 09:56:53;;;;;;;32.10;14.63;;;;;;;7.61;98.78;102532.91;6110399;23;20525;-83
2023/12/16 09:59:21;;;;;;;38.17;15.57;;;;;;;7.63;98.71;102533.69;6110438;23;20102;-83
2023/12/16 10:01:58;;;;;;;39.08;14.98;;;;;;;7.63;98.76;102546.06;6063937;23;20018;-82
2023/12/16 10:04:26;;;;;;;30.55;13.30;;;;;;;7.66;98.72;102535.38;6063489;23;20082;-83
2023/12/16 10:06:53;;;;;;;31.00;13.20;;;;;;;7.67;99.18;102543.28;6061633;23;20074;-84
2023/12/16 10:09:20;;;;;;;31.38;12.45;;;;;;;7.69;98.55;102536.16;6061525;23;20026;-83
2023/12/16 10:11:52;;;;;;;28.77;12.27;;;;;;;7.68;98.46;102526.47;6107692;23;20430;-82
2023/12/16 10:14:20;;;;;;;31.42;13.43;;;;;;;7.70;98.76;102529.94;6086204;23;20023;-83
2023/12/16 10:16:47;;;;;;;30.45;12.55;;;;;;;7.73;98.63;102532.47;6109145;23;20462;-87
2023/12/16 10:19:16;;;;;;;32.85;12.85;;;;;;;7.73;98.30;102528.97;6086214;23;20032;-86
2023/12/16 10:21:43;;;;;;;34.25;14.15;;;;;;;7.72;98.41;102520.19;6110885;23;20050;-86
2023/12/16 10:24:10;;;;;;;26.10;12.38;;;;;;;7.73;98.05;102515.75;6109889;23;20045;-86
2023/12/16 10:26:42;;;;;;;37.22;13.07;;;;;;;7.75;97.78;102524.50;6085547;23;20058;-87
2023/12/16 10:29:10;;;;;;;30.63;12.00;;;;;;;7.77;97.73;102523.53;6061693;23;20057;-89
2023/12/16 10:31:37;;;;;;;28.48;12.27;;;;;;;7.78;97.62;102519.97;6111042;23;20776;-89
2023/12/16 10:34:04;;;;;;;33.28;14.40;;;;;;;7.79;97.57;102508.50;6062693;23;20026;-88
2023/12/16 10:36:32;;;;;;;30.08;12.48;;;;;;;7.76;96.71;102503.31;6111021;23;20123;-89
2023/12/16 10:38:59;;;;;;;34.58;15.23;;;;;;;7.80;96.79;102501.41;6095809;23;20045;-89
2023/12/16 10:41:26;;;;;;;26.27;11.68;;;;;;;7.78;96.29;102501.44;6064560;23;20022;-89
2023/12/16 10:43:53;;;;;;;27.65;11.38;;;;;;;7.81;96.73;102503.13;6083185;23;20026;-89
2023/12/16 10:46:26;;;;;;;25.90;11.82;;;;;;;7.81;96.84;102504.00;6036383;23;20073;-89
2023/12/16 10:48:54;;;;;;;33.75;13.23;;;;;;;7.83;96.87;102506.59;6110268;23;20026;-89
2023/12/16 10:51:21;;;;;;;35.83;13.43;;;;;;;7.82;96.64;102497.78;6087433;23;20081;-88
2023/12/16 10:54:06;;;;;;;32.88;13.25;;;;;;;7.80;96.45;102502.25;6088636;23;20085;-92
2023/12/16 10:56:38;;;;;;;35.17;12.95;;;;;;;7.79;96.22;102497.91;6065533;23;20105;-93
2023/12/16 10:59:21;;;;;;;31.83;13.45;;;;;;;7.80;96.61;102496.97;6086509;23;20022;-93
2023/12/16 11:01:56;;;;;;;28.92;11.98;;;;;;;7.78;96.28;102500.59;6040068;23;20361;-94
2023/12/16 11:04:24;;;;;;;26.40;12.18;;;;;;;7.81;96.22;102504.00;6066318;23;20021;-94
2023/12/16 11:07:09;;;;;;;26.48;11.90;;;;;;;7.78;95.37;102498.81;6089662;23;20049;-93
2023/12/16 11:09:37;;;;;;;38.03;12.73;;;;;;;7.83;95.83;102502.16;6063979;23;20034;-94
2023/12/16 11:12:06;;;;;;;31.17;14.40;;;;;;;7.86;95.86;102505.63;6088289;23;20420;-93
2023/12/16 11:14:35;;;;;;;32.33;14.40;;;;;;;7.87;95.90;102502.94;6090525;23;20097;-93